Tiempo atmosférico en la estación meteorológica de Boadilla Fuente San Esteban, Salamanca (785 m.)



Fecha
DESCASC
Temp. máxima en grados centígrados (hora)
DESCASC
Temp. mínima en grados centígrados (hora)
DESCASC
Temp. media en grados centígrados
DESCASC
Racha de viento máxima en m/sg (hora)
DESCASC
Velocidad máxima media en intervalos de 10 minutos(hora)
DESCASC
Precipitaciones diarias en mm
DESCASC
Precipitaciones de 00:00 a 06:00 en mm
DESCASC
Precipitaciones de 06:00 a 12:00 en mm
DESCASC
Precipitaciones de 12:00 a 18:00 en mm
DESCASC
Precipitaciones de 18:00 a 24:00 en mm
DESCASC
18-10-2018 19.9 (18:10) 10.9 (09:10) 15.4 10.83 (17:30) 7.5 (18:30) 1 1 0 0 0
17-10-2018 19.7 (16:40) 3.6 (08:50) 11.7 8.61 (15:30) 5.56 (16:50) 0 0 0 0 0
16-10-2018 15.2 (18:00) 7.9 (23:50) 11.5 5.83 (13:30) 3.61 (12:20) 0 0 0 0 0
15-10-2018 14.4 (14:50) 7.3 (02:50) 10.8 8.06 (13:40) 5.56 (13:40) 3.2 0 3.2 0 0
14-10-2018 21.2 (00:10) 7.8 (00:00) 14.5 15 (00:40) 9.44 (01:20) 4.2 4 0.2 0 0
13-10-2018 25.2 (15:30) 9.9 (00:00) 17.6 13.61 (23:59) 8.89 (23:59) 0 0 0 0 0
12-10-2018 21.2 (15:40) 8.7 (00:00) 15 9.44 (11:40) 6.39 (15:00) 0 0 0 0 0
11-10-2018 19.4 (17:30) 13.7 (07:50) 16.5 14.17 (10:50) 8.89 (11:10) 0.2 0 0.2 0 0
10-10-2018 19.4 (15:00) 6.3 (00:00) 12.8 11.11 (13:10) 7.5 (14:20) 0 0 0 0 0
09-10-2018 20.2 (18:00) 3.5 (07:50) 11.9 7.5 (15:10) 3.89 (10:40) 0 0 0 0 0
08-10-2018 19.2 (17:10) 5 (02:50) 12.1 11.67 (10:50) 8.61 (11:10) 0 0 0 0 0
07-10-2018 16.9 (16:50) 5.7 (08:20) 11.3 12.22 (11:00) 9.17 (11:00) 0 0 0 0 0
06-10-2018 25.5 (15:30) 8.5 (07:00) 17 12.22 (15:50) 7.5 (16:20) 0 0 0 0 0
05-10-2018 27.6 (16:30) 8.7 (06:30) 18.2 8.89 (18:30) 5 (15:50) 0 0 0 0 0
04-10-2018 27.8 (16:40) 5.8 (00:00) 16.8 5 (13:30) 3.33 (12:30) 0 0 0 0 0
03-10-2018 25.8 (17:20) 7.4 (00:00) 16.6 7.22 (09:30) 5 (09:50) 0 0 0 0 0
02-10-2018 22.3 (17:20) 5.7 (00:00) 14 9.44 (14:00) 6.67 (13:10) 0 0 0 0 0
01-10-2018 21.9 (17:10) 9.3 (00:00) 15.6 13.89 (10:20) 10 (10:20) 0 0 0 0 0
30-09-2018 28.4 (15:50) 10.3 (00:00) 19.3 8.06 (16:00) 5.28 (17:10) 0 0 0 0 0
29-09-2018 28.5 (17:40) 12.1 (00:00) 20.3 5.83 (16:00) 3.61 (10:30) 0 0 0 0 0
28-09-2018 28.3 (17:40) 12.1 (00:00) 20.2 6.67 (16:20) 3.89 (17:40) 0 0 0 0 0
27-09-2018 28.1 (15:20) 15 (00:00) 21.6 10 (15:20) 3.61 (12:50) 0 0 0 0 0
26-09-2018 29.8 (16:50) 12.6 (00:00) 21.2 11.39 (18:40) 7.5 (18:10) 0.4 0 0 0.2 0.2
25-09-2018 27.3 (18:00) 9.1 (00:00) 18.2 8.89 (00:10) 6.11 (00:10) 0 0 0 0 0
24-09-2018 29.1 (17:10) 13.8 (00:00) 21.5 10 (13:30) 6.39 (13:50) 0 0 0 0 0
23-09-2018 32.1 (16:40) 11.7 (08:00) 21.9 6.67 (15:20) 3.89 (18:50) 0 0 0 0 0
22-09-2018 31 (17:00) 9 (07:20) 20 6.94 (14:40) 3.61 (14:40) 0 0 0 0 0
21-09-2018 27.6 (17:40) 11.2 (07:30) 19.4 5.56 (16:20) 3.33 (17:20) 0 0 0 0 0
20-09-2018 30.5 (17:10) 12.4 (06:10) 21.4 10.83 (17:20) 6.11 (16:20) 0 0 0 0 0

Gráficas

Temp. máximas Temp. mínimas Temp. medias Precipitaciones Rachas de viento máximas Velocidades máximas media en intervalos de 10 minutos

Datos horarios

Fecha y hora oficial Temperatura (ºC) Velocidad del viento (km/h) Dirección del viento Racha (km/h) Dirección de racha Precipitación (mm) Presión (hPa) Tendencia (hPa) Humedad (%)
2018-10-19 23:00:00 15.6 25 Nordeste 42 Nordeste 0 -- -- 75
2018-10-19 22:00:00 16.1 26 Nordeste 35 Nordeste 0 -- -- 73
2018-10-19 21:00:00 16.4 15 Nordeste 29 Nordeste 0 -- -- 72
2018-10-19 20:00:00 16.7 19 Nordeste 36 Nordeste 0 -- -- 70
2018-10-19 19:00:00 16.6 27 Nordeste 42 Nordeste 0 -- -- 71
2018-10-19 18:00:00 16.2 18 Nordeste 41 Nordeste 0 -- -- 76
2018-10-19 17:00:00 16.5 15 Nordeste 34 Nordeste 0 -- -- 73
2018-10-19 16:00:00 16.1 26 Nordeste 39 Nordeste 0 -- -- 75
2018-10-19 15:00:00 15.5 23 Nordeste 31 Nordeste 0 -- -- 76
2018-10-19 14:00:00 14.6 22 Nordeste 39 Nordeste 0 -- -- 81
2018-10-19 13:00:00 14.6 23 Nordeste 35 Nordeste 0 -- -- 79
2018-10-19 12:00:00 14.1 25 Nordeste 32 Nordeste 0 -- -- 82
2018-10-19 11:00:00 13.3 22 Nordeste 36 Nordeste 0 -- -- 85
2018-10-19 10:00:00 13.2 24 Nordeste 36 Nordeste 0 -- -- 85
2018-10-19 09:00:00 13.1 22 Nordeste 33 Nordeste 0 -- -- 87
2018-10-19 08:00:00 12.8 21 Nordeste 31 Nordeste 0 -- -- 88
2018-10-19 07:00:00 12.7 22 Nordeste 31 Nordeste 0 -- -- 89
2018-10-19 06:00:00 12.3 19 Nordeste 33 Nordeste 0.2 -- -- 91
2018-10-19 05:00:00 12.2 24 Nordeste 31 Nordeste 0 -- -- 91
2018-10-19 04:00:00 12 14 Nordeste 23 Nordeste 0 -- -- 89
2018-10-19 03:00:00 11.6 10 Norte 18 Nordeste 0 -- -- 91
2018-10-19 02:00:00 11.6 15 Nordeste 24 Nordeste 0 -- -- 90
2018-10-19 01:00:00 12.1 14 Nordeste 23 Nordeste 0 -- -- 87
2018-10-19 00:00:00 12.8 16 Nordeste 34 Nordeste 0 -- -- 83
2018-10-18 23:00:00 13.8 22 Nordeste 35 Nordeste 0 -- -- 78
2018-10-18 22:00:00 14.8 21 Nordeste 35 Nordeste 0 -- -- 72
2018-10-18 21:00:00 15.7 16 Nordeste 27 Nordeste 0 -- -- 66
2018-10-18 20:00:00 16.9 18 Nordeste 31 Nordeste 0 -- -- 58
2018-10-18 19:00:00 18.2 19 Nordeste 36 Nordeste 0 -- -- 53
2018-10-18 18:00:00 19.8 23 Nordeste 39 Nordeste 0 -- -- 46
2018-10-18 17:00:00 19.6 23 Nordeste 34 Nordeste 0 -- -- 53
2018-10-18 16:00:00 17.5 26 Nordeste 35 Nordeste 0 -- -- 62
2018-10-18 15:00:00 19 26 Nordeste 36 Nordeste 0 -- -- 55
2018-10-18 14:00:00 17.3 22 Nordeste 30 Nordeste 0 -- -- 66
2018-10-18 13:00:00 16.5 18 Nordeste 24 Nordeste 0 -- -- 71
2018-10-18 12:00:00 14.1 15 Nordeste 24 Nordeste 0 -- -- 83
2018-10-18 11:00:00 12.5 14 Nordeste 24 Este 0 -- -- 92
2018-10-18 10:00:00 11.4 12 Nordeste 18 Nordeste 0 -- -- 94
2018-10-18 09:00:00 11 3 Nordeste 10 Nordeste 0 -- -- 94
2018-10-18 08:00:00 11.3 6 Nordeste 19 Este 0 -- -- 93
2018-10-18 07:00:00 11.7 10 Este 15 Este 0 -- -- 92
2018-10-18 06:00:00 11.8 4 Nordeste 12 Nordeste 0 -- -- 95
2018-10-18 05:00:00 11.8 10 Nordeste 13 Nordeste 0 -- -- 96
2018-10-18 04:00:00 12.3 5 Noroeste 8 Noroeste 0.2 -- -- 95
2018-10-18 03:00:00 12.3 3 Norte 9 Sur 0.8 -- -- 93
2018-10-18 02:00:00 12.6 0 Calma 3 Sudeste 0 -- -- 90
2018-10-18 01:00:00 12.5 2 Noroeste 5 Sudoeste 0 -- -- 88
2018-10-18 00:00:00 12.7 0 Calma 3 Sudoeste 0 -- -- 85
2018-10-17 23:00:00 14 0 Calma 13 Noroeste 0 -- -- 79
2018-10-17 22:00:00 14.4 7 Noroeste 19 Oeste 0 -- -- 77
2018-10-17 21:00:00 15.4 9 Oeste 24 Sur 0 -- -- 72
2018-10-17 20:00:00 16.6 15 Sudoeste 26 Sudoeste 0 -- -- 61
2018-10-17 19:00:00 17.4 16 Sudoeste 28 Sudoeste 0 -- -- 58
2018-10-17 18:00:00 18.1 15 Sudoeste 30 Sudoeste 0 -- -- 56
2018-10-17 17:00:00 19 17 Sudoeste 31 Sudoeste 0 -- -- 53
2018-10-17 16:00:00 19.1 16 Sudoeste 31 Oeste 0 -- -- 52
2018-10-17 15:00:00 18.9 18 Oeste 29 Oeste 0 -- -- 52
2018-10-17 14:00:00 17.5 10 Oeste 18 Oeste 0 -- -- 59
2018-10-17 13:00:00 15.3 4 Noroeste 8 Noroeste 0 -- -- 73
2018-10-17 12:00:00 12.4 2 Noroeste 5 Noroeste 0 -- -- 85
2018-10-17 11:00:00 9.6 0 Calma 5 Oeste 0 -- -- 95
2018-10-17 10:00:00 6.3 0 Calma 0 Calma 0 -- -- 98
2018-10-17 09:00:00 3.7 2 Noroeste 3 Noroeste 0 -- -- 97
2018-10-17 08:00:00 4.1 0 Calma 3 Sudeste 0 -- -- 97
2018-10-17 07:00:00 4.5 3 Sudeste 5 Este 0 -- -- 97
2018-10-17 06:00:00 4.3 0 Calma 5 Oeste 0 -- -- 96
2018-10-17 05:00:00 5.2 2 Sudoeste 5 Sudeste 0 -- -- 97
2018-10-17 04:00:00 5.7 0 Calma 5 Sudeste 0 -- -- 96
2018-10-17 03:00:00 5.9 4 Sudeste 6 Sudeste 0 -- -- 95
2018-10-17 02:00:00 6.8 0 Calma 8 Sudeste 0 -- -- 93
2018-10-17 01:00:00 8 3 Sudeste 6 Sudeste 0 -- -- 93
2018-10-17 00:00:00 7.9 3 Este 5 Este 0 -- -- 93
2018-10-16 23:00:00 9 3 Noroeste 8 Noroeste 0 -- -- 90
2018-10-16 22:00:00 10.4 5 Este 7 Este 0 -- -- 86
2018-10-16 21:00:00 11.1 3 Nordeste 4 Norte 0 -- -- 82
2018-10-16 20:00:00 12.9 3 Norte 10 Norte 0 -- -- 76
2018-10-16 19:00:00 14.9 5 Nordeste 13 Nordeste 0 -- -- 68
2018-10-16 18:00:00 15.2 7 Nordeste 15 Norte 0 -- -- 67
2018-10-16 17:00:00 14.7 8 Nordeste 13 Nordeste 0 -- -- 70
2018-10-16 16:00:00 14.3 5 Norte 16 Norte 0 -- -- 71
2018-10-16 15:00:00 13.8 10 Nordeste 18 Nordeste 0 -- -- 75
2018-10-16 14:00:00 13.2 10 Nordeste 21 Nordeste 0 -- -- 77
2018-10-16 13:00:00 12.7 9 Nordeste 17 Nordeste 0 -- -- 80
2018-10-16 12:00:00 11.3 10 Nordeste 17 Nordeste 0 -- -- 88
2018-10-16 11:00:00 10.5 13 Nordeste 20 Este 0 -- -- 90
2018-10-16 10:00:00 10 9 Norte 14 Norte 0 -- -- 93
2018-10-16 09:00:00 10.1 5 Norte 8 Noroeste 0 -- -- 93
2018-10-16 08:00:00 10.2 4 Nordeste 14 Nordeste 0 -- -- 92
2018-10-16 07:00:00 10 4 Nordeste 15 Este 0 -- -- 92
2018-10-16 06:00:00 10.4 10 Nordeste 14 Este 0 -- -- 91
2018-10-16 05:00:00 10.7 9 Nordeste 17 Nordeste 0 -- -- 93
2018-10-16 04:00:00 11.2 8 Nordeste 13 Nordeste 0 -- -- 94
2018-10-16 03:00:00 11.3 10 Nordeste 14 Nordeste 0 -- -- 94
2018-10-16 02:00:00 11.4 7 Norte 9 Norte 0 -- -- 94
2018-10-16 01:00:00 11.4 0 Calma 6 Este 0 -- -- 94
2018-10-16 00:00:00 11.3 5 Este 6 Este 0 -- -- 94
2018-10-15 23:00:00 11.1 2 Norte 11 Oeste 0 -- -- 92
2018-10-15 22:00:00 11.1 2 Sudeste 8 Sur 0 -- -- 87
2018-10-15 21:00:00 12.4 4 Sudoeste 13 Sudoeste 0 -- -- 83
2018-10-15 20:00:00 13 9 Oeste 14 Oeste 0 -- -- 79
2018-10-15 19:00:00 13.7 5 Sudoeste 13 Oeste 0 -- -- 75
2018-10-15 18:00:00 14 9 Sur 18 Sudoeste 0 -- -- 74
2018-10-15 17:00:00 12.8 9 Sudoeste 17 Sudoeste 0 -- -- 83
2018-10-15 16:00:00 12.6 12 Sudoeste 27 Sudoeste 0 -- -- 83
2018-10-15 15:00:00 14.4 17 Sudoeste 25 Sudoeste 0 -- -- 69
2018-10-15 14:00:00 13.6 18 Sur 29 Sur 0 -- -- 81
2018-10-15 13:00:00 11.5 7 Sudeste 18 Sur 0 -- -- 88
2018-10-15 12:00:00 10.6 6 Sur 14 Sur 0.4 -- -- 91
2018-10-15 11:00:00 9.5 6 Sur 19 Sudeste 1.2 -- -- 92
2018-10-15 10:00:00 9 13 Sur 22 Sudeste 1.6 -- -- 87
2018-10-15 09:00:00 9.2 13 Sudeste 20 Sudeste 0 -- -- 73
2018-10-15 08:00:00 8.3 6 Sudeste 13 Sudeste 0 -- -- 73
2018-10-15 07:00:00 7.8 8 Sudeste 17 Sudeste 0 -- -- 78
2018-10-15 06:00:00 8.2 7 Sur 19 Sur 0 -- -- 82
2018-10-15 05:00:00 7.9 10 Sudoeste 16 Sudoeste 0 -- -- 85
2018-10-15 04:00:00 7.7 10 Sudoeste 23 Sudoeste 0 -- -- 89
2018-10-15 03:00:00 7.3 9 Sur 16 Sur 0 -- -- 90
2018-10-15 02:00:00 7.7 13 Sudoeste 18 Sudoeste 0 -- -- 88
2018-10-15 01:00:00 8.4 10 Sudoeste 20 Oeste 0 -- -- 84
2018-10-15 00:00:00 9.4 12 Sudoeste 27 Oeste 0 -- -- 81
2018-10-14 23:00:00 10.2 15 Oeste 22 Oeste 0 -- -- 78
2018-10-14 22:00:00 10.1 9 Oeste 15 Oeste 0 -- -- 76
2018-10-14 21:00:00 10.2 8 Oeste 18 Oeste 0 -- -- 77
2018-10-14 20:00:00 11.6 13 Oeste 34 Oeste 0 -- -- 69
2018-10-14 19:00:00 12.8 24 Noroeste 38 Oeste 0 -- -- 62
2018-10-14 18:00:00 13 19 Oeste 37 Noroeste 0 -- -- 65
2018-10-14 17:00:00 13.4 24 Noroeste 37 Noroeste 0 -- -- 62
2018-10-14 16:00:00 12.8 22 Noroeste 39 Noroeste 0 -- -- 65
2018-10-14 15:00:00 12 19 Noroeste 40 Noroeste 0 -- -- 66
2018-10-14 14:00:00 11.8 24 Noroeste 39 Noroeste 0 -- -- 68
2018-10-14 13:00:00 10.2 20 Oeste 35 Oeste 0 -- -- 79
2018-10-14 12:00:00 9.7 20 Oeste 36 Oeste 0 -- -- 79
2018-10-14 11:00:00 9.3 18 Oeste 41 Oeste 0 -- -- 81
2018-10-14 10:00:00 8.1 21 Oeste 37 Oeste 0 -- -- 88
2018-10-14 09:00:00 8 18 Noroeste 38 Oeste 0.2 -- -- 94
2018-10-14 08:00:00 9 19 Oeste 40 Oeste 0 -- -- 93
2018-10-14 07:00:00 9.8 26 Oeste 41 Sudoeste 0 -- -- 91
2018-10-14 06:00:00 10.8 23 Sudoeste 37 Sudoeste 0 -- -- 91
2018-10-14 05:00:00 11.4 24 Sudoeste 43 Sudoeste 0 -- -- 86
2018-10-14 04:00:00 13.5 19 Sudoeste 41 Sur 0.2 -- -- 82
2018-10-14 03:00:00 14.8 23 Sur 36 Sur 1.2 -- -- 89
2018-10-14 02:00:00 15.8 21 Sudeste 48 Sur 2.6 -- -- 83
2018-10-14 01:00:00 20.6 32 Sur 54 Sur 0 -- -- 50
2018-10-14 00:00:00 21.1 32 Sur 49 Sur 0 -- -- 50
2018-10-13 23:00:00 21.3 24 Sur 39 Sudeste 0 -- -- 50
2018-10-13 22:00:00 19.8 10 Sudeste 27 Sudeste 0 -- -- 58
2018-10-13 21:00:00 20.1 15 Sudeste 25 Sudeste 0 -- -- 59
2018-10-13 20:00:00 21 14 Sur 23 Sur 0 -- -- 57
2018-10-13 19:00:00 22.4 9 Sur 34 Sur 0 -- -- 52
2018-10-13 18:00:00 23.8 21 Sur 38 Sur 0 -- -- 49
2018-10-13 17:00:00 24.9 20 Sur 33 Sur 0 -- -- 45
2018-10-13 16:00:00 24.9 10 Sur 28 Sur 0 -- -- 46
2018-10-13 15:00:00 24.7 15 Sur 31 Sudoeste 0 -- -- 47
2018-10-13 14:00:00 23.4 12 Sudoeste 29 Sudoeste 0 -- -- 51
2018-10-13 13:00:00 22.6 15 Sudoeste 24 Sudoeste 0 -- -- 53
2018-10-13 12:00:00 21 3 Noroeste 8 Este 0 -- -- 60
2018-10-13 11:00:00 17.8 4 Este 6 Este 0 -- -- 74
2018-10-13 10:00:00 12.8 0 Calma 6 Sudeste 0 -- -- 92
2018-10-13 09:00:00 11 2 Sur 6 Sudeste 0 -- -- 93
2018-10-13 08:00:00 11.4 4 Sudeste 6 Sudeste 0 -- -- 95
2018-10-13 07:00:00 10.7 2 Nordeste 6 Sudeste 0 -- -- 94
2018-10-13 06:00:00 10 2 Norte 4 Norte 0 -- -- 91
2018-10-13 05:00:00 10.5 0 Calma 5 Sudeste 0 -- -- 89
2018-10-13 04:00:00 11 0 Calma 2 Este 0 -- -- 91
2018-10-13 03:00:00 11 0 Calma 6 Este 0 -- -- 88
2018-10-13 02:00:00 11.2 3 Este 6 Nordeste 0 -- -- 85
2018-10-13 01:00:00 12.5 5 Sudeste 8 Sur 0 -- -- 86
2018-10-13 00:00:00 13.7 5 Sur 12 Sur 0 -- -- 78
2018-10-12 23:00:00 15 9 Sudeste 12 Sudeste 0 -- -- 76
2018-10-12 22:00:00 15.1 7 Sudeste 9 Sudeste 0 -- -- 74
2018-10-12 21:00:00 16 5 Este 17 Sur 0 -- -- 69
2018-10-12 20:00:00 18.4 12 Sur 21 Sudoeste 0 -- -- 62
2018-10-12 19:00:00 19.5 15 Sudoeste 26 Sudoeste 0 -- -- 57
2018-10-12 18:00:00 20.2 16 Sudoeste 26 Sudoeste 0 -- -- 53
2018-10-12 17:00:00 20.8 15 Sur 26 Sudoeste 0 -- -- 51
2018-10-12 16:00:00 21.2 15 Sudoeste 34 Sudoeste 0 -- -- 49
2018-10-12 15:00:00 21 23 Sudoeste 34 Sudoeste 0 -- -- 48
2018-10-12 14:00:00 20.8 19 Sudoeste 34 Sudoeste 0 -- -- 46
2018-10-12 13:00:00 19.8 18 Sudoeste 31 Sur 0 -- -- 49
2018-10-12 12:00:00 18 18 Sudoeste 34 Sur 0 -- -- 57
2018-10-12 11:00:00 15.5 8 Sur 17 Sur 0 -- -- 68
2018-10-12 10:00:00 13.4 14 Sur 22 Sur 0 -- -- 75
2018-10-12 09:00:00 10.8 6 Sur 12 Sur 0 -- -- 85
2018-10-12 08:00:00 8.7 5 Sur 9 Sudoeste 0 -- -- 92
2018-10-12 07:00:00 10.9 6 Sudoeste 15 Sudoeste 0 -- -- 87
2018-10-12 06:00:00 10.4 6 Sudoeste 12 Sudoeste 0 -- -- 90
2018-10-12 05:00:00 11 6 Oeste 8 Oeste 0 -- -- 88
2018-10-12 04:00:00 12.8 6 Sudoeste 15 Sur 0 -- -- 81
2018-10-12 03:00:00 12.9 9 Sur 14 Sur 0 -- -- 82
2018-10-12 02:00:00 13.1 8 Sur 12 Sur 0 -- -- 79
2018-10-12 01:00:00 13.5 5 Sur 14 Sudoeste 0 -- -- 77
2018-10-12 00:00:00 14.2 9 Sudoeste 19 Sur 0 -- -- 75
2018-10-11 23:00:00 14.5 12 Sudoeste 25 Sudoeste 0 -- -- 75
2018-10-11 22:00:00 15 13 Sudoeste 31 Sur 0 -- -- 78
2018-10-11 21:00:00 16.3 15 Sudoeste 29 Sudoeste 0 -- -- 74
2018-10-11 20:00:00 17.2 16 Sudoeste 31 Sur 0 -- -- 70
2018-10-11 19:00:00 18.1 20 Sudoeste 40 Sur 0 -- -- 71
2018-10-11 18:00:00 18.5 27 Sudoeste 41 Sudoeste 0 -- -- 67
2018-10-11 17:00:00 18.8 27 Sudoeste 45 Sudoeste 0 -- -- 67
2018-10-11 16:00:00 19.2 25 Sudoeste 41 Sudoeste 0 -- -- 65
2018-10-11 15:00:00 17.6 17 Sur 27 Sudoeste 0 -- -- 73
2018-10-11 14:00:00 16.3 16 Sudoeste 33 Sudoeste 0 -- -- 81
2018-10-11 13:00:00 17.3 21 Sudoeste 42 Sur 0 -- -- 69
2018-10-11 12:00:00 17.5 26 Sudoeste 48 Sur 0 -- -- 65
2018-10-11 11:00:00 16.5 30 Sudoeste 51 Sur 0 -- -- 74
2018-10-11 10:00:00 14.8 21 Sudoeste 43 Sur 0 -- -- 86
2018-10-11 09:00:00 14.5 16 Sudoeste 26 Sudoeste 0 -- -- 86
2018-10-11 08:00:00 13.7 8 Sudoeste 32 Sudoeste 0.2 -- -- 90
2018-10-11 07:00:00 15.1 17 Sudoeste 28 Sudoeste 0 -- -- 79
2018-10-11 06:00:00 15.2 12 Sudoeste 45 Sur 0 -- -- 77
2018-10-11 05:00:00 15.8 24 Sudoeste 41 Sudoeste 0 -- -- 75
2018-10-11 04:00:00 15.7 18 Sur 30 Sur 0 -- -- 73
2018-10-11 03:00:00 15.3 17 Sur 30 Sur 0 -- -- 71
2018-10-11 02:00:00 15.6 11 Sur 32 Sur 0 -- -- 68
2018-10-11 01:00:00 16.2 17 Sur 33 Sur 0 -- -- 65
2018-10-11 00:00:00 16.4 18 Sur 34 Sur 0 -- -- 61
2018-10-10 23:00:00 16.2 17 Sur 26 Sur 0 -- -- 59
2018-10-10 22:00:00 14.8 12 Sur 17 Sudoeste 0 -- -- 63
2018-10-10 21:00:00 15.1 7 Sudoeste 13 Sudoeste 0 -- -- 62
2018-10-10 20:00:00 16.7 11 Sudoeste 29 Sur 0 -- -- 58
2018-10-10 19:00:00 17.7 17 Sur 32 Sur 0 -- -- 53
2018-10-10 18:00:00 17.7 19 Sur 39 Sudoeste 0 -- -- 52
2018-10-10 17:00:00 18.7 23 Sur 37 Sudoeste 0 -- -- 51
2018-10-10 16:00:00 18.9 19 Sur 37 Sur 0 -- -- 50
2018-10-10 15:00:00 19.4 23 Sur 39 Sur 0 -- -- 48
2018-10-10 14:00:00 19.2 22 Sur 40 Sur 0 -- -- 50
2018-10-10 13:00:00 18.4 23 Sudoeste 35 Sur 0 -- -- 51
2018-10-10 12:00:00 18 18 Sur 27 Sur 0 -- -- 51
2018-10-10 11:00:00 15.9 5 Sudeste 9 Este 0 -- -- 57
2018-10-10 10:00:00 10.7 2 Sudeste 4 Sur 0 -- -- 69
2018-10-10 09:00:00 6.5 2 Sudeste 11 Sudeste 0 -- -- 74
2018-10-10 08:00:00 7.6 8 Sudeste 11 Sudeste 0 -- -- 74
2018-10-10 07:00:00 7.7 6 Sudeste 12 Sudeste 0 -- -- 72
2018-10-10 06:00:00 9.2 3 Norte 15 Sudeste 0 -- -- 65
2018-10-10 05:00:00 9.7 8 Sudeste 14 Sudeste 0 -- -- 64
2018-10-10 04:00:00 8.8 7 Sudeste 9 Sudeste 0 -- -- 68
2018-10-10 03:00:00 8.6 4 Sudeste 9 Sudeste 0 -- -- 68
2018-10-10 02:00:00 8.9 8 Sudeste 9 Sudeste 0 -- -- 69
2018-10-10 01:00:00 9.6 0 Calma 4 Sudeste 0 -- -- 63
2018-10-10 00:00:00 11.5 4 Sudoeste 9 Sudeste 0 -- -- 57
2018-10-09 23:00:00 13.5 3 Sudoeste 9 Oeste 0 -- -- 50
2018-10-09 22:00:00 14.9 5 Norte 12 Nordeste 0 -- -- 45
2018-10-09 21:00:00 16 10 Nordeste 14 Nordeste 0 -- -- 42
2018-10-09 20:00:00 18 12 Nordeste 16 Nordeste 0 -- -- 37
2018-10-09 19:00:00 19.9 12 Nordeste 18 Este 0 -- -- 33
2018-10-09 18:00:00 20.2 10 Norte 24 Nordeste 0 -- -- 32
2018-10-09 17:00:00 19.8 8 Este 24 Nordeste 0 -- -- 34
2018-10-09 16:00:00 19.7 14 Nordeste 27 Nordeste 0 -- -- 34
2018-10-09 15:00:00 19.1 10 Norte 23 Nordeste 0 -- -- 38
2018-10-09 14:00:00 18 9 Nordeste 19 Este 0 -- -- 42
2018-10-09 13:00:00 16.4 11 Nordeste 17 Nordeste 0 -- -- 48
2018-10-09 12:00:00 13.7 8 Norte 14 Nordeste 0 -- -- 60
2018-10-09 11:00:00 10.8 9 Este 19 Este 0 -- -- 71
2018-10-09 10:00:00 8.2 9 Nordeste 13 Este 0 -- -- 84
2018-10-09 09:00:00 4.9 8 Este 11 Este 0 -- -- 92
2018-10-09 08:00:00 3.5 0 Calma 5 Nordeste 0 -- -- 91
2018-10-09 07:00:00 4.3 2 Nordeste 10 Nordeste 0 -- -- 86
2018-10-09 06:00:00 4.9 8 Este 12 Nordeste 0 -- -- 86
2018-10-09 05:00:00 5.5 2 Nordeste 10 Nordeste 0 -- -- 83
2018-10-09 04:00:00 6.1 4 Nordeste 10 Este 0 -- -- 80
2018-10-09 03:00:00 8.2 8 Este 15 Este 0 -- -- 74
2018-10-09 02:00:00 9.4 13 Este 18 Este 0 -- -- 70
2018-10-09 01:00:00 9.7 11 Este 17 Este 0 -- -- 67
2018-10-09 00:00:00 9.1 10 Este 13 Este 0 -- -- 67
2018-10-08 23:00:00 9.9 10 Este 14 Este 0 -- -- 63
2018-10-08 22:00:00 11.1 9 Nordeste 13 Este 0 -- -- 59
2018-10-08 21:00:00 13 9 Nordeste 19 Nordeste 0 -- -- 53
2018-10-08 20:00:00 15.9 14 Nordeste 23 Nordeste 0 -- -- 46
2018-10-08 19:00:00 18 15 Nordeste 30 Nordeste 0 -- -- 41
2018-10-08 18:00:00 18.7 20 Nordeste 36 Nordeste 0 -- -- 40
2018-10-08 17:00:00 18.7 16 Este 32 Nordeste 0 -- -- 41
2018-10-08 16:00:00 18.3 18 Nordeste 32 Nordeste 0 -- -- 42
2018-10-08 15:00:00 18.1 20 Este 35 Nordeste 0 -- -- 44
2018-10-08 14:00:00 17.2 24 Este 37 Este 0 -- -- 49
2018-10-08 13:00:00 15.9 30 Nordeste 42 Nordeste 0 -- -- 54
2018-10-08 12:00:00 14.6 30 Este 40 Nordeste 0 -- -- 58
2018-10-08 11:00:00 12.9 29 Este 42 Este 0 -- -- 61
2018-10-08 10:00:00 9.6 13 Nordeste 21 Este 0 -- -- 71
2018-10-08 09:00:00 5.3 9 Nordeste 17 Este 0 -- -- 83
2018-10-08 08:00:00 7.6 13 Nordeste 29 Este 0 -- -- 75
2018-10-08 07:00:00 8.2 22 Este 35 Este 0 -- -- 73
2018-10-08 06:00:00 7.4 19 Este 29 Este 0 -- -- 74
2018-10-08 05:00:00 7 15 Nordeste 24 Nordeste 0 -- -- 74
2018-10-08 04:00:00 7.5 16 Este 24 Este 0 -- -- 71
2018-10-08 03:00:00 5.1 5 Nordeste 11 Este 0 -- -- 72
2018-10-08 02:00:00 7.3 9 Este 19 Este 0 -- -- 64
2018-10-08 01:00:00 6.9 8 Este 16 Este 0 -- -- 61
2018-10-08 00:00:00 9.2 12 Este 17 Nordeste 0 -- -- 53
2018-10-07 23:00:00 9.8 11 Este 18 Nordeste 0 -- -- 51
2018-10-07 22:00:00 11.2 11 Nordeste 23 Nordeste 0 -- -- 45
2018-10-07 21:00:00 12.3 13 Nordeste 23 Nordeste 0 -- -- 45
2018-10-07 20:00:00 14.3 17 Nordeste 30 Nordeste 0 -- -- 39
2018-10-07 19:00:00 16.1 21 Nordeste 31 Nordeste 0 -- -- 35
2018-10-07 18:00:00 16.7 23 Nordeste 32 Este 0 -- -- 34
2018-10-07 17:00:00 16.7 25 Nordeste 37 Nordeste 0 -- -- 35
2018-10-07 16:00:00 16.4 27 Nordeste 37 Este 0 -- -- 37
2018-10-07 15:00:00 15.6 26 Nordeste 39 Nordeste 0 -- -- 39
2018-10-07 14:00:00 15.1 24 Nordeste 42 Nordeste 0 -- -- 41
2018-10-07 13:00:00 13.1 31 Nordeste 44 Nordeste 0 -- -- 46
2018-10-07 12:00:00 11.3 33 Nordeste 44 Nordeste 0 -- -- 51
2018-10-07 11:00:00 9.9 33 Nordeste 44 Nordeste 0 -- -- 55
2018-10-07 10:00:00 7.8 21 Nordeste 31 Nordeste 0 -- -- 63
2018-10-07 09:00:00 6 21 Nordeste 32 Nordeste 0 -- -- 72
2018-10-07 08:00:00 5.9 21 Nordeste 31 Nordeste 0 -- -- 73
2018-10-07 07:00:00 6.7 22 Nordeste 30 Nordeste 0 -- -- 69
2018-10-07 06:00:00 7.6 21 Nordeste 31 Nordeste 0 -- -- 67
2018-10-07 05:00:00 8.5 20 Nordeste 33 Nordeste 0 -- -- 65
2018-10-07 04:00:00 9.9 21 Nordeste 34 Nordeste 0 -- -- 60
2018-10-07 03:00:00 11.5 20 Nordeste 30 Nordeste 0 -- -- 54
2018-10-07 02:00:00 11.7 18 Nordeste 27 Nordeste 0 -- -- 57
2018-10-07 01:00:00 11.9 8 Nordeste 13 Este 0 -- -- 66
2018-10-07 00:00:00 10.9 6 Norte 16 Norte 0 -- -- 72
2018-10-06 23:00:00 12.8 9 Noroeste 14 Norte 0 -- -- 68
2018-10-06 22:00:00 14.8 7 Noroeste 23 Noroeste 0 -- -- 62
2018-10-06 21:00:00 17.6 9 Noroeste 24 Oeste 0 -- -- 54
2018-10-06 20:00:00 19.9 15 Noroeste 33 Noroeste 0 -- -- 45
2018-10-06 19:00:00 22.6 22 Oeste 40 Noroeste 0 -- -- 33
2018-10-06 18:00:00 24 23 Oeste 43 Oeste 0 -- -- 33
2018-10-06 17:00:00 24.7 22 Oeste 42 Oeste 0 -- -- 29
2018-10-06 16:00:00 24.9 24 Oeste 44 Oeste 0 -- -- 28
2018-10-06 15:00:00 25.1 23 Oeste 42 Noroeste 0 -- -- 28
2018-10-06 14:00:00 24.7 20 Oeste 39 Oeste 0 -- -- 28
2018-10-06 13:00:00 24.1 18 Sudoeste 31 Sudoeste 0 -- -- 29
2018-10-06 12:00:00 22.6 13 Oeste 23 Oeste 0 -- -- 31
2018-10-06 11:00:00 19.3 5 Oeste 8 Oeste 0 -- -- 41
2018-10-06 10:00:00 15 0 Calma 10 Sur 0 -- -- 51
2018-10-06 09:00:00 11.4 5 Sudeste 12 Sudeste 0 -- -- 59
2018-10-06 08:00:00 9.8 5 Sudeste 9 Sudeste 0 -- -- 63
2018-10-06 07:00:00 8.5 4 Sudeste 6 Sudeste 0 -- -- 64
2018-10-06 06:00:00 10.2 3 Sudoeste 15 Sudeste 0 -- -- 58
2018-10-06 05:00:00 11.6 12 Sudeste 15 Sudeste 0 -- -- 54
2018-10-06 04:00:00 12.3 9 Sudeste 12 Sudeste 0 -- -- 53
2018-10-06 03:00:00 12.6 7 Sur 10 Sur 0 -- -- 52
2018-10-06 02:00:00 13.7 8 Sur 10 Sur 0 -- -- 48
2018-10-06 01:00:00 14.1 7 Sur 10 Sur 0 -- -- 46
2018-10-06 00:00:00 16.7 8 Sur 10 Sudoeste 0 -- -- 38
2018-10-05 23:00:00 17.6 8 Sudoeste 11 Sudoeste 0 -- -- 36
2018-10-05 22:00:00 19 9 Sur 13 Sudoeste 0 -- -- 32
2018-10-05 21:00:00 19.9 9 Sudoeste 13 Sur 0 -- -- 30
2018-10-05 20:00:00 23 5 Oeste 21 Sudoeste 0 -- -- 26
2018-10-05 19:00:00 26.4 13 Oeste 32 Sur 0 -- -- 20
2018-10-05 18:00:00 27.4 10 Sudoeste 21 Sudoeste 0 -- -- 21
2018-10-05 17:00:00 27.4 12 Oeste 27 Sudoeste 0 -- -- 22
2018-10-05 16:00:00 27.2 15 Oeste 29 Oeste 0 -- -- 21
2018-10-05 15:00:00 26.7 14 Oeste 24 Sudoeste 0 -- -- 23
2018-10-05 14:00:00 25.6 12 Oeste 23 Sudoeste 0 -- -- 25
2018-10-05 13:00:00 24.1 6 Oeste 12 Norte 0 -- -- 32
2018-10-05 12:00:00 22 3 Noroeste 7 Oeste 0 -- -- 36
2018-10-05 11:00:00 18.9 4 Oeste 6 Sudoeste 0 -- -- 41
2018-10-05 10:00:00 14.3 0 Calma 14 Sudeste 0 -- -- 51
2018-10-05 09:00:00 10.7 12 Sudeste 14 Sudeste 0 -- -- 58
2018-10-05 08:00:00 9 6 Sudeste 10 Sudeste 0 -- -- 61
2018-10-05 07:00:00 9.7 3 Sur 12 Sudeste 0 -- -- 58
2018-10-05 06:00:00 9.6 3 Sur 10 Sur 0 -- -- 59
2018-10-05 05:00:00 10.8 5 Sur 7 Sur 0 -- -- 56
2018-10-05 04:00:00 10.4 3 Sur 9 Sur 0 -- -- 58
2018-10-05 03:00:00 10.8 0 Calma 8 Sur 0 -- -- 55
2018-10-05 02:00:00 10.3 6 Sudeste 16 Oeste 0 -- -- 56
2018-10-05 01:00:00 13.6 6 Sur 13 Sudeste 0 -- -- 46
2018-10-05 00:00:00 13.2 9 Sudeste 12 Sudeste 0 -- -- 45
2018-10-04 23:00:00 14.2 3 Sudeste 10 Este 0 -- -- 42
2018-10-04 22:00:00 15.9 0 Calma 10 Noroeste 0 -- -- 38
2018-10-04 21:00:00 18.5 4 Noroeste 6 Noroeste 0 -- -- 33
2018-10-04 20:00:00 24 4 Noroeste 13 Noroeste 0 -- -- 25
2018-10-04 19:00:00 26.7 8 Noroeste 15 Noroeste 0 -- -- 22
2018-10-04 18:00:00 27.7 5 Noroeste 16 Norte 0 -- -- 22
2018-10-04 17:00:00 27.5 6 Noroeste 12 Norte 0 -- -- 23
2018-10-04 16:00:00 26.8 4 Sudoeste 12 Oeste 0 -- -- 23
2018-10-04 15:00:00 25.7 8 Norte 17 Norte 0 -- -- 27
2018-10-04 14:00:00 24.3 9 Nordeste 18 Nordeste 0 -- -- 31
2018-10-04 13:00:00 22.5 11 Nordeste 18 Nordeste 0 -- -- 36
2018-10-04 12:00:00 19.7 6 Nordeste 12 Nordeste 0 -- -- 45
2018-10-04 11:00:00 16.2 5 Norte 9 Norte 0 -- -- 55
2018-10-04 10:00:00 12.7 3 Nordeste 13 Este 0 -- -- 63
2018-10-04 09:00:00 6.9 4 Nordeste 10 Este 0 -- -- 79
2018-10-04 08:00:00 5.9 4 Este 5 Nordeste 0 -- -- 82
2018-10-04 07:00:00 7.3 4 Sudoeste 6 Sudoeste 0 -- -- 76
2018-10-04 06:00:00 8.7 3 Nordeste 12 Este 0 -- -- 69
2018-10-04 05:00:00 10.7 8 Este 13 Este 0 -- -- 64
2018-10-04 04:00:00 8.8 3 Este 8 Nordeste 0 -- -- 69
2018-10-04 03:00:00 9.7 0 Calma 4 Sudoeste 0 -- -- 64
2018-10-04 02:00:00 11 0 Calma 7 Este 0 -- -- 59
2018-10-04 01:00:00 12.7 0 Calma 13 Este 0 -- -- 54
2018-10-04 00:00:00 12.8 6 Este 9 Norte 0 -- -- 53
2018-10-03 23:00:00 15.8 4 Sudeste 12 Sudeste 0 -- -- 45
2018-10-03 22:00:00 17.2 8 Este 13 Este 0 -- -- 43
2018-10-03 21:00:00 17.9 10 Nordeste 11 Nordeste 0 -- -- 40
2018-10-03 20:00:00 21.9 8 Nordeste 18 Este 0 -- -- 33
2018-10-03 19:00:00 24.9 13 Nordeste 20 Nordeste 0 -- -- 29
2018-10-03 18:00:00 25.8 10 Nordeste 18 Nordeste 0 -- -- 26
2018-10-03 17:00:00 25.7 8 Nordeste 22 Nordeste 0 -- -- 27
2018-10-03 16:00:00 25.1 13 Nordeste 21 Este 0 -- -- 27
2018-10-03 15:00:00 24.5 12 Nordeste 20 Nordeste 0 -- -- 25
2018-10-03 14:00:00 22.6 14 Nordeste 23 Nordeste 0 -- -- 28
2018-10-03 13:00:00 19.8 14 Nordeste 20 Nordeste 0 -- -- 32
2018-10-03 12:00:00 17.2 16 Nordeste 21 Nordeste 0 -- -- 37
2018-10-03 11:00:00 14.6 10 Nordeste 20 Este 0 -- -- 43
2018-10-03 10:00:00 11.2 17 Nordeste 26 Nordeste 0 -- -- 48
2018-10-03 09:00:00 7.7 12 Nordeste 17 Este 0 -- -- 57
2018-10-03 08:00:00 8 15 Este 19 Este 0 -- -- 54
2018-10-03 07:00:00 8.6 11 Este 19 Este 0 -- -- 52
2018-10-03 06:00:00 9 13 Nordeste 20 Este 0 -- -- 50
2018-10-03 05:00:00 9.1 10 Este 21 Nordeste 0 -- -- 48
2018-10-03 04:00:00 10.3 15 Este 22 Este 0 -- -- 45
2018-10-03 03:00:00 10.8 11 Nordeste 17 Este 0 -- -- 44
2018-10-03 02:00:00 11.6 12 Este 18 Este 0 -- -- 42
2018-10-03 01:00:00 12 11 Este 17 Este 0 -- -- 42
2018-10-03 00:00:00 11.6 10 Este 15 Este 0 -- -- 43
2018-10-02 23:00:00 12.6 8 Este 12 Este 0 -- -- 40
2018-10-02 22:00:00 14.8 9 Este 10 Este 0 -- -- 34
2018-10-02 21:00:00 16.4 8 Este 11 Este 0 -- -- 29
2018-10-02 20:00:00 19.1 9 Nordeste 23 Este 0 -- -- 25
2018-10-02 19:00:00 21.7 14 Nordeste 25 Este 0 -- -- 20
2018-10-02 18:00:00 22.1 19 Nordeste 31 Este 0 -- -- 19
2018-10-02 17:00:00 21.8 16 Nordeste 27 Nordeste 0 -- -- 20
2018-10-02 16:00:00 21.1 16 Nordeste 31 Nordeste 0 -- -- 22
2018-10-02 15:00:00 19.5 16 Nordeste 32 Nordeste 0 -- -- 29
2018-10-02 14:00:00 17.8 22 Nordeste 34 Nordeste 0 -- -- 33
2018-10-02 13:00:00 16 22 Nordeste 31 Este 0 -- -- 43
2018-10-02 12:00:00 13.3 21 Nordeste 32 Nordeste 0 -- -- 52
2018-10-02 11:00:00 11 18 Este 31 Este 0 -- -- 61
2018-10-02 10:00:00 8.3 19 Nordeste 29 Este 0 -- -- 74
2018-10-02 09:00:00 6.3 15 Este 26 Este 0 -- -- 82
2018-10-02 08:00:00 6.1 12 Este 27 Nordeste 0 -- -- 81
2018-10-02 07:00:00 6.6 17 Este 31 Este 0 -- -- 78
2018-10-02 06:00:00 7 19 Este 31 Nordeste 0 -- -- 77
2018-10-02 05:00:00 7.7 17 Este 29 Este 0 -- -- 75
2018-10-02 04:00:00 8.2 17 Este 30 Este 0 -- -- 72
2018-10-02 03:00:00 9.2 19 Nordeste 32 Este 0 -- -- 68
2018-10-02 02:00:00 10.6 13 Este 28 Este 0 -- -- 62
2018-10-02 01:00:00 11.9 17 Este 32 Este 0 -- -- 56
2018-10-02 00:00:00 13.5 19 Nordeste 30 Este 0 -- -- 52
2018-10-01 23:00:00 14.5 18 Este 27 Este 0 -- -- 48
2018-10-01 22:00:00 15.8 14 Este 24 Este 0 -- -- 39
2018-10-01 21:00:00 17 15 Nordeste 24 Nordeste 0 -- -- 35
2018-10-01 20:00:00 19 20 Nordeste 36 Nordeste 0 -- -- 32
2018-10-01 19:00:00 21.1 25 Nordeste 34 Nordeste 0 -- -- 31
2018-10-01 18:00:00 21.7 24 Nordeste 40 Este 0 -- -- 31
2018-10-01 17:00:00 21.6 25 Nordeste 42 Este 0 -- -- 32
2018-10-01 16:00:00 21.4 27 Nordeste 40 Este 0 -- -- 35
2018-10-01 15:00:00 20.6 27 Nordeste 48 Nordeste 0 -- -- 37
2018-10-01 14:00:00 19 29 Este 44 Nordeste 0 -- -- 41
2018-10-01 13:00:00 17.6 31 Nordeste 44 Este 0 -- -- 45
2018-10-01 12:00:00 16.1 28 Nordeste 40 Este 0 -- -- 50
2018-10-01 11:00:00 14.3 32 Nordeste 50 Este 0 -- -- 56
2018-10-01 10:00:00 12.6 32 Este 45 Este 0 -- -- 64
2018-10-01 09:00:00 10.4 22 Nordeste 33 Nordeste 0 -- -- 74
2018-10-01 08:00:00 9.8 14 Este 23 Nordeste 0 -- -- 74
2018-10-01 07:00:00 10.4 10 Este 20 Nordeste 0 -- -- 66
2018-10-01 06:00:00 10.9 12 Este 20 Nordeste 0 -- -- 57
2018-10-01 05:00:00 10.2 9 Nordeste 14 Nordeste 0 -- -- 58
2018-10-01 04:00:00 11.5 6 Este 8 Este 0 -- -- 54
2018-10-01 03:00:00 12.4 8 Este 12 Este 0 -- -- 52
2018-10-01 02:00:00 13.4 5 Este 14 Noroeste 0 -- -- 56
2018-10-01 01:00:00 14.5 2 Oeste 7 Noroeste 0 -- -- 60
2018-10-01 00:00:00 16.3 0 Calma 8 Noroeste 0 -- -- 51
2018-09-30 23:00:00 17.9 4 Oeste 6 Noroeste 0 -- -- 45
2018-09-30 22:00:00 19 5 Oeste 8 Oeste 0 -- -- 40
2018-09-30 21:00:00 19.2 2 Sudoeste 8 Oeste 0 -- -- 37
2018-09-30 20:00:00 24.4 8 Noroeste 28 Noroeste 0 -- -- 27
2018-09-30 19:00:00 26.7 13 Noroeste 26 Noroeste 0 -- -- 32
2018-09-30 18:00:00 27.4 15 Noroeste 27 Noroeste 0 -- -- 31
2018-09-30 17:00:00 27.1 12 Oeste 26 Noroeste 0 -- -- 33
2018-09-30 16:00:00 27.3 16 Oeste 29 Oeste 0 -- -- 33
2018-09-30 15:00:00 27.4 13 Oeste 22 Sudoeste 0 -- -- 32
2018-09-30 14:00:00 26.6 9 Noroeste 19 Oeste 0 -- -- 33
2018-09-30 13:00:00 24.9 5 Norte 15 Noroeste 0 -- -- 35
2018-09-30 12:00:00 22.8 3 Norte 10 Nordeste 0 -- -- 39
2018-09-30 11:00:00 20 3 Este 6 Sudeste 0 -- -- 46
2018-09-30 10:00:00 16 4 Nordeste 8 Sudeste 0 -- -- 55
2018-09-30 09:00:00 12.3 5 Sudeste 8 Sudeste 0 -- -- 67
2018-09-30 08:00:00 11.3 5 Sudeste 8 Sudeste 0 -- -- 70
2018-09-30 07:00:00 10.3 2 Nordeste 5 Sur 0 -- -- 73
2018-09-30 06:00:00 10.9 3 Sudeste 6 Sur 0 -- -- 71
2018-09-30 05:00:00 12.1 4 Sudeste 8 Norte 0 -- -- 66
2018-09-30 04:00:00 12.4 4 Sur 7 Sudeste 0 -- -- 65
2018-09-30 03:00:00 12.8 5 Norte 12 Sur 0 -- -- 63
2018-09-30 02:00:00 14.4 5 Sudeste 12 Sudeste 0 -- -- 57
2018-09-30 01:00:00 14.1 6 Sudeste 9 Sudeste 0 -- -- 59
2018-09-30 00:00:00 15.3 4 Sur 8 Sur 0 -- -- 56
2018-09-29 23:00:00 16.6 4 Sur 9 Oeste 0 -- -- 50
2018-09-29 22:00:00 18.7 5 Sudeste 9 Oeste 0 -- -- 43
2018-09-29 21:00:00 20.7 5 Este 6 Este 0 -- -- 40
2018-09-29 20:00:00 25 4 Nordeste 9 Nordeste 0 -- -- 31
2018-09-29 19:00:00 27.1 3 Este 15 Norte 0 -- -- 28
2018-09-29 18:00:00 27.9 4 Nordeste 13 Sudoeste 0 -- -- 27
2018-09-29 17:00:00 28.2 7 Sudoeste 20 Oeste 0 -- -- 28
2018-09-29 16:00:00 27.3 10 Norte 21 Norte 0 -- -- 30
2018-09-29 15:00:00 26.6 7 Norte 17 Norte 0 -- -- 33
2018-09-29 14:00:00 25.4 7 Nordeste 17 Nordeste 0 -- -- 38
2018-09-29 13:00:00 23.1 5 Nordeste 14 Norte 0 -- -- 46
2018-09-29 12:00:00 20.8 6 Nordeste 14 Nordeste 0 -- -- 54
2018-09-29 11:00:00 18.2 10 Nordeste 18 Nordeste 0 -- -- 61
2018-09-29 10:00:00 15.8 8 Nordeste 12 Nordeste 0 -- -- 68
2018-09-29 09:00:00 13.6 4 Nordeste 13 Este 0 -- -- 77
2018-09-29 08:00:00 12.6 9 Nordeste 15 Este 0 -- -- 77
2018-09-29 07:00:00 12.1 7 Este 10 Este 0 -- -- 72
2018-09-29 06:00:00 12.7 8 Este 10 Este 0 -- -- 68
2018-09-29 05:00:00 12.7 6 Nordeste 11 Este 0 -- -- 66
2018-09-29 04:00:00 13.7 8 Este 11 Norte 0 -- -- 62
2018-09-29 03:00:00 13.7 6 Nordeste 12 Sudeste 0 -- -- 61
2018-09-29 02:00:00 15.9 10 Este 15 Este 0 -- -- 55
2018-09-29 01:00:00 14.9 4 Sudeste 9 Nordeste 0 -- -- 57
2018-09-29 00:00:00 17 6 Sudeste 11 Sudeste 0 -- -- 51
2018-09-28 23:00:00 19 10 Sudeste 15 Este 0 -- -- 45
2018-09-28 22:00:00 20.7 12 Este 13 Este 0 -- -- 42
2018-09-28 21:00:00 21.3 10 Este 11 Este 0 -- -- 42
2018-09-28 20:00:00 24.6 8 Este 16 Nordeste 0 -- -- 36
2018-09-28 19:00:00 26.4 4 Nordeste 20 Nordeste 0 -- -- 33
2018-09-28 18:00:00 27.6 8 Nordeste 22 Nordeste 0 -- -- 32
2018-09-28 17:00:00 28.1 7 Norte 24 Este 0 -- -- 32
2018-09-28 16:00:00 27.9 8 Nordeste 21 Norte 0 -- -- 31
2018-09-28 15:00:00 27.5 13 Norte 23 Norte 0 -- -- 34
2018-09-28 14:00:00 26.6 9 Norte 17 Norte 0 -- -- 37
2018-09-28 13:00:00 24.6 7 Norte 14 Norte 0 -- -- 46
2018-09-28 12:00:00 21.9 7 Norte 13 Noroeste 0 -- -- 53
2018-09-28 11:00:00 19.8 0 Calma 6 Nordeste 0 -- -- 61
2018-09-28 10:00:00 16.8 0 Calma 2 Sudeste 0 -- -- 74
2018-09-28 09:00:00 12.6 0 Calma 7 Sudeste 0 -- -- 85
2018-09-28 08:00:00 12.6 8 Sudeste 9 Sudeste 0 -- -- 86
2018-09-28 07:00:00 12.7 7 Sudeste 8 Sudeste 0 -- -- 86
2018-09-28 06:00:00 12.9 0 Calma 7 Sudeste 0 -- -- 86
2018-09-28 05:00:00 13 0 Calma 7 Sur 0 -- -- 83
2018-09-28 04:00:00 14.4 6 Sur 9 Sudeste 0 -- -- 82
2018-09-28 03:00:00 14.7 3 Sudeste 8 Sudeste 0 -- -- 82
2018-09-28 02:00:00 16.2 0 Calma 9 Sudeste 0 -- -- 73
2018-09-28 01:00:00 17.3 6 Sur 12 Nordeste 0 -- -- 70
2018-09-28 00:00:00 18 0 Calma 6 Sudoeste 0 -- -- 67
2018-09-27 23:00:00 18.3 0 Calma -- -- 0 -- -- 66
2018-09-27 22:00:00 19.5 0 Calma -- -- 0 -- -- 61
2018-09-27 21:00:00 21.1 0 Calma 6 Norte 0 -- -- 55
2018-09-27 20:00:00 24.5 4 Norte 13 Norte 0 -- -- 45
2018-09-27 19:00:00 26.7 9 Norte 16 Norte 0 -- -- 40
2018-09-27 18:00:00 26.8 8 Nordeste 21 Nordeste 0 -- -- 39
2018-09-27 17:00:00 27.8 7 Norte 18 Noroeste 0 -- -- 37
2018-09-27 16:00:00 26.7 12 Norte 36 Norte 0 -- -- 40
2018-09-27 15:00:00 27.5 8 Nordeste 22 Este 0 -- -- 39
2018-09-27 14:00:00 26.1 11 Este 21 Nordeste 0 -- -- 43
2018-09-27 13:00:00 25.1 10 Este 21 Este 0 -- -- 47
2018-09-27 12:00:00 23.8 9 Este 16 Este 0 -- -- 53
2018-09-27 11:00:00 21.7 9 Este 13 Este 0 -- -- 57
2018-09-27 10:00:00 18.9 3 Sudeste 9 Este 0 -- -- 68
2018-09-27 09:00:00 15.4 0 Calma 7 Este 0 -- -- 82
2018-09-27 08:00:00 15.1 3 Este 8 Sudeste 0 -- -- 82
2018-09-27 07:00:00 15.3 3 Sudeste 5 Este 0 -- -- 84
2018-09-27 06:00:00 16.6 0 Calma -- -- 0 -- -- 79
2018-09-27 05:00:00 17.1 0 Calma 6 Oeste 0 -- -- 77
2018-09-27 04:00:00 17.9 0 Calma 9 Este 0 -- -- 71
2018-09-27 03:00:00 17.5 4 Sudeste 6 Este 0 -- -- 77
2018-09-27 02:00:00 17.8 2 Sudoeste 11 Sudeste 0 -- -- 70
2018-09-27 01:00:00 18.5 6 Sudeste 15 Este 0 -- -- 67
2018-09-27 00:00:00 18.7 10 Este 20 Este 0 -- -- 68
2018-09-26 23:00:00 19.6 6 Sudeste 13 Este 0 -- -- 66
2018-09-26 22:00:00 20.3 6 Nordeste 17 Sur 0 -- -- 52
2018-09-26 21:00:00 20.3 9 Sudoeste 18 Noroeste 0 -- -- 58
2018-09-26 20:00:00 19.8 17 Noroeste 28 Noroeste 0 -- -- 64
2018-09-26 19:00:00 19.9 16 Sudeste 41 Sudeste 0.2 -- -- 70
2018-09-26 18:00:00 21.5 26 Sudeste 40 Sudeste 0.2 -- -- 65
2018-09-26 17:00:00 29.6 8 Oeste 17 Oeste 0 -- -- 39
2018-09-26 16:00:00 28.2 4 Este 12 Noroeste 0 -- -- 35
2018-09-26 15:00:00 27.5 6 Noroeste 14 Noroeste 0 -- -- 34
2018-09-26 14:00:00 25.7 7 Noroeste 14 Oeste 0 -- -- 36
2018-09-26 13:00:00 23.3 5 Noroeste 12 Oeste 0 -- -- 38
2018-09-26 12:00:00 21.1 0 Calma 9 Nordeste 0 -- -- 41
2018-09-26 11:00:00 18.2 5 Nordeste 18 Nordeste 0 -- -- 46
2018-09-26 10:00:00 15.3 12 Nordeste 21 Nordeste 0 -- -- 51
2018-09-26 09:00:00 13.1 12 Nordeste 20 Este 0 -- -- 55
2018-09-26 08:00:00 12.7 10 Este 15 Este 0 -- -- 54
2018-09-26 07:00:00 13.6 10 Nordeste 19 Este 0 -- -- 50
2018-09-26 06:00:00 13.8 9 Nordeste 19 Nordeste 0 -- -- 49
2018-09-26 05:00:00 14.2 7 Nordeste 15 Nordeste 0 -- -- 46
2018-09-26 04:00:00 14.7 6 Nordeste 15 Nordeste 0 -- -- 45
2018-09-26 03:00:00 15.1 10 Este 15 Este 0 -- -- 50
2018-09-26 02:00:00 15.4 9 Este 15 Este 0 -- -- 56
2018-09-26 01:00:00 17.3 8 Este 13 Este 0 -- -- 51
2018-09-26 00:00:00 17.7 8 Este 14 Este 0 -- -- 50
2018-09-25 23:00:00 18.8 11 Este 15 Nordeste 0 -- -- 46
2018-09-25 22:00:00 20.1 12 Este 16 Este 0 -- -- 42
2018-09-25 21:00:00 21.5 11 Este 15 Nordeste 0 -- -- 39
2018-09-25 20:00:00 24.7 10 Nordeste 14 Nordeste 0 -- -- 34
2018-09-25 19:00:00 26.8 10 Nordeste 22 Nordeste 0 -- -- 31
2018-09-25 18:00:00 27.3 9 Nordeste 18 Norte 0 -- -- 31
2018-09-25 17:00:00 26.8 12 Nordeste 22 Nordeste 0 -- -- 30
2018-09-25 16:00:00 26.1 14 Nordeste 30 Nordeste 0 -- -- 31
2018-09-25 15:00:00 24.6 15 Nordeste 23 Nordeste 0 -- -- 31
2018-09-25 14:00:00 22.2 17 Nordeste 29 Nordeste 0 -- -- 32
2018-09-25 13:00:00 19.5 19 Nordeste 27 Nordeste 0 -- -- 34
2018-09-25 12:00:00 17.1 16 Nordeste 23 Este 0 -- -- 36
2018-09-25 11:00:00 14 15 Nordeste 25 Nordeste 0 -- -- 42
2018-09-25 10:00:00 11.5 19 Nordeste 26 Este 0 -- -- 45
2018-09-25 09:00:00 9.8 15 Nordeste 23 Nordeste 0 -- -- 49
2018-09-25 08:00:00 9.3 13 Nordeste 22 Este 0 -- -- 52
2018-09-25 07:00:00 9.9 14 Nordeste 26 Nordeste 0 -- -- 52
2018-09-25 06:00:00 10.5 15 Nordeste 21 Este 0 -- -- 53
2018-09-25 05:00:00 11.3 12 Nordeste 21 Nordeste 0 -- -- 60
2018-09-25 04:00:00 12.3 11 Nordeste 24 Nordeste 0 -- -- 59
2018-09-25 03:00:00 13.9 15 Nordeste 23 Este 0 -- -- 56
2018-09-25 02:00:00 15.3 14 Nordeste 32 Este 0 -- -- 51
2018-09-25 01:00:00 16.9 19 Este 32 Este 0 -- -- 50
2018-09-25 00:00:00 18.6 17 Este 33 Este 0 -- -- 50
2018-09-24 23:00:00 20.4 19 Este 25 Este 0 -- -- 48
2018-09-24 22:00:00 22.1 20 Nordeste 27 Nordeste 0 -- -- 47
2018-09-24 21:00:00 23.4 13 Nordeste 19 Nordeste 0 -- -- 47
2018-09-24 20:00:00 26.2 17 Nordeste 26 Nordeste 0 -- -- 41
2018-09-24 19:00:00 28 22 Nordeste 29 Nordeste 0 -- -- 39
2018-09-24 18:00:00 28.8 15 Nordeste 33 Nordeste 0 -- -- 37
2018-09-24 17:00:00 28.8 15 Nordeste 26 Este 0 -- -- 37
2018-09-24 16:00:00 28.5 14 Nordeste 30 Nordeste 0 -- -- 39
2018-09-24 15:00:00 27.6 21 Nordeste 31 Nordeste 0 -- -- 41
2018-09-24 14:00:00 26.2 22 Nordeste 36 Nordeste 0 -- -- 46
2018-09-24 13:00:00 24.8 21 Nordeste 31 Nordeste 0 -- -- 50
2018-09-24 12:00:00 22.9 19 Nordeste 29 Este 0 -- -- 54
2018-09-24 11:00:00 20.9 21 Este 30 Nordeste 0 -- -- 61
2018-09-24 10:00:00 18.4 22 Este 30 Este 0 -- -- 70
2018-09-24 09:00:00 16.1 13 Este 21 Este 0 -- -- 78
2018-09-24 08:00:00 15.6 14 Nordeste 24 Nordeste 0 -- -- 77
2018-09-24 07:00:00 15.8 9 Nordeste 18 Este 0 -- -- 74
2018-09-24 06:00:00 16.1 7 Este 17 Este 0 -- -- 68
2018-09-24 05:00:00 16.9 12 Este 22 Nordeste 0 -- -- 64
2018-09-24 04:00:00 15.1 4 Este 7 Este 0 -- -- 59
2018-09-24 03:00:00 15.5 2 Sudeste 6 Sudeste 0 -- -- 52
2018-09-24 02:00:00 15.8 3 Sudeste 8 Este 0 -- -- 52
2018-09-24 01:00:00 17.5 5 Sudeste 10 Nordeste 0 -- -- 45
2018-09-24 00:00:00 20.3 6 Sudeste 10 Este 0 -- -- 37
2018-09-23 23:00:00 21 2 Este 6 Nordeste 0 -- -- 36
2018-09-23 22:00:00 21 4 Este 6 Nordeste 0 -- -- 38
2018-09-23 21:00:00 24.3 5 Norte 11 Noroeste 0 -- -- 31
2018-09-23 20:00:00 28.7 10 Noroeste 19 Noroeste 0 -- -- 25
2018-09-23 19:00:00 30.9 13 Noroeste 22 Noroeste 0 -- -- 24
2018-09-23 18:00:00 31.7 8 Noroeste 22 Oeste 0 -- -- 23
2018-09-23 17:00:00 32 6 Oeste 18 Oeste 0 -- -- 23
2018-09-23 16:00:00 31.7 9 Norte 24 Noroeste 0 -- -- 24
2018-09-23 15:00:00 31.3 10 Oeste 19 Noroeste 0 -- -- 26
2018-09-23 14:00:00 30.3 8 Norte 21 Oeste 0 -- -- 26
2018-09-23 13:00:00 30.3 0 Calma 13 Este 0 -- -- 27
2018-09-23 12:00:00 28.3 6 Nordeste 11 Este 0 -- -- 28
2018-09-23 11:00:00 25.6 6 Este 9 Este 0 -- -- 33
2018-09-23 10:00:00 18.8 0 Calma -- -- 0 -- -- 53
2018-09-23 09:00:00 13.1 0 Calma 4 Noroeste 0 -- -- 71
2018-09-23 08:00:00 11.7 0 Calma 2 Oeste 0 -- -- 71
2018-09-23 07:00:00 12 0 Calma 5 Oeste 0 -- -- 70
2018-09-23 06:00:00 12.9 3 Oeste 9 Sudeste 0 -- -- 67
2018-09-23 05:00:00 12.4 0 Calma 5 Noroeste 0 -- -- 70
2018-09-23 04:00:00 14 0 Calma 5 Sudeste 0 -- -- 63
2018-09-23 03:00:00 14.8 3 Norte 18 Noroeste 0 -- -- 60
2018-09-23 02:00:00 16.9 2 Sudeste 9 Sudeste 0 -- -- 52
2018-09-23 01:00:00 17.8 5 Sudeste 12 Sudeste 0 -- -- 50
2018-09-23 00:00:00 18.7 9 Sudeste 12 Sudeste 0 -- -- 47
2018-09-22 23:00:00 20.3 8 Sudeste 12 Sudeste 0 -- -- 43
2018-09-22 22:00:00 20.8 5 Este 6 Este 0 -- -- 42
2018-09-22 21:00:00 23.3 0 Calma 10 Norte 0 -- -- 36
2018-09-22 20:00:00 27.5 8 Norte 14 Norte 0 -- -- 30
2018-09-22 19:00:00 29.8 9 Noroeste 17 Noroeste 0 -- -- 25
2018-09-22 18:00:00 30.6 12 Noroeste 19 Noroeste 0 -- -- 23
2018-09-22 17:00:00 31 10 Oeste 17 Sudoeste 0 -- -- 25
2018-09-22 16:00:00 30.4 5 Noroeste 21 Sudoeste 0 -- -- 25
2018-09-22 15:00:00 29.6 12 Oeste 25 Oeste 0 -- -- 27
2018-09-22 14:00:00 28.7 8 Noroeste 17 Noroeste 0 -- -- 30
2018-09-22 13:00:00 27.4 3 Noroeste 10 Noroeste 0 -- -- 31
2018-09-22 12:00:00 24.4 4 Nordeste 8 Nordeste 0 -- -- 39
2018-09-22 11:00:00 21.3 5 Nordeste 9 Nordeste 0 -- -- 46
2018-09-22 10:00:00 17.7 5 Este 10 Sur 0 -- -- 54
2018-09-22 09:00:00 11.8 3 Este 6 Sudeste 0 -- -- 73
2018-09-22 08:00:00 9.9 4 Sudeste 10 Norte 0 -- -- 76
2018-09-22 07:00:00 10 0 Calma 6 Sudeste 0 -- -- 74
2018-09-22 06:00:00 11.1 3 Sudeste 5 Sur 0 -- -- 69
2018-09-22 05:00:00 14 4 Sudeste 11 Sudeste 0 -- -- 59
2018-09-22 04:00:00 14.1 8 Sudeste 13 Sudeste 0 -- -- 57
2018-09-22 03:00:00 14.1 6 Sudeste 9 Sudeste 0 -- -- 57
2018-09-22 02:00:00 14.8 6 Sudeste 9 Sudeste 0 -- -- 56
2018-09-22 01:00:00 15.3 3 Sur 11 Sudeste 0 -- -- 53
2018-09-22 00:00:00 16.3 8 Sudeste 10 Sudeste 0 -- -- 48
2018-09-21 23:00:00 17.4 4 Sudeste 6 Sudeste 0 -- -- 44
2018-09-21 22:00:00 18.9 0 Calma -- -- 0 -- -- 41
2018-09-21 21:00:00 21.7 3 Noroeste 7 Noroeste 0 -- -- 36
2018-09-21 20:00:00 25.2 7 Noroeste 13 Oeste 0 -- -- 29
2018-09-21 19:00:00 27.4 8 Noroeste 19 Noroeste 0 -- -- 27
2018-09-21 18:00:00 27.5 9 Noroeste 19 Noroeste 0 -- -- 29
2018-09-21 17:00:00 27.1 11 Noroeste 20 Oeste 0 -- -- 33
2018-09-21 16:00:00 27 7 Noroeste 18 Noroeste 0 -- -- 34
2018-09-21 15:00:00 25.9 6 Norte 14 Noroeste 0 -- -- 36
2018-09-21 14:00:00 25.1 5 Noroeste 14 Noroeste 0 -- -- 39
2018-09-21 13:00:00 23 8 Noroeste 15 Oeste 0 -- -- 47
2018-09-21 12:00:00 21 6 Noroeste 11 Noroeste 0 -- -- 53
2018-09-21 11:00:00 18.8 3 Noroeste 12 Sudoeste 0 -- -- 61
2018-09-21 10:00:00 16.3 3 Sudoeste 6 Sur 0 -- -- 70
2018-09-21 09:00:00 12.7 0 Calma 3 Sudeste 0 -- -- 82
2018-09-21 08:00:00 11.6 5 Sudeste 9 Sudeste 0 -- -- 82
2018-09-21 07:00:00 11.6 0 Calma 8 Sur 0 -- -- 82
2018-09-21 06:00:00 13.3 8 Sur 12 Sudeste 0 -- -- 77
2018-09-21 05:00:00 14.2 6 Sudoeste 10 Sudoeste 0 -- -- 72
2018-09-21 04:00:00 15 7 Sudoeste 11 Sudoeste 0 -- -- 70
2018-09-21 03:00:00 15.5 6 Sudoeste 10 Sudoeste 0 -- -- 64
2018-09-21 02:00:00 16.5 8 Sudoeste 11 Sudoeste 0 -- -- 57
2018-09-21 01:00:00 17.6 5 Sudoeste 12 Sudoeste 0 -- -- 52
2018-09-21 00:00:00 19.1 6 Sudoeste 10 Sudoeste 0 -- -- 49
2018-09-20 23:00:00 20.6 4 Sudoeste 13 Sudoeste 0 -- -- 48
2018-09-20 22:00:00 21.9 7 Oeste 13 Oeste 0 -- -- 47
2018-09-20 21:00:00 23.9 9 Oeste 20 Noroeste 0 -- -- 43
2018-09-20 20:00:00 26.4 15 Oeste 29 Oeste 0 -- -- 39
2018-09-20 19:00:00 29.1 15 Oeste 28 Noroeste 0 -- -- 34
2018-09-20 18:00:00 29.2 14 Oeste 39 Sudoeste 0 -- -- 34
2018-09-20 17:00:00 30.1 14 Oeste 35 Sudoeste 0 -- -- 32
2018-09-20 16:00:00 30.4 18 Sudoeste 35 Sudoeste 0 -- -- 30
2018-09-20 15:00:00 29.9 18 Sudoeste 33 Oeste 0 -- -- 31
2018-09-20 14:00:00 29.2 16 Sudoeste 31 Sudoeste 0 -- -- 31
2018-09-20 13:00:00 28.7 16 Sudoeste 31 Sudoeste 0 -- -- 32
2018-09-20 12:00:00 27.4 12 Sudoeste 19 Sudoeste 0 -- -- 32
2018-09-20 11:00:00 24.6 6 Sur 11 Sur 0 -- -- 40
2018-09-20 10:00:00 19.7 5 Sudeste 8 Sudeste 0 -- -- 55
2018-09-20 09:00:00 15.1 4 Sudeste 9 Sudeste 0 -- -- 68
2018-09-20 08:00:00 13.8 9 Sudeste 13 Sudeste 0 -- -- 71
2018-09-20 07:00:00 13.8 8 Sudeste 12 Sudeste 0 -- -- 70
2018-09-20 06:00:00 12.6 3 Sudeste 7 Sudeste 0 -- -- 75
2018-09-20 05:00:00 13.6 5 Sudeste 7 Sudeste 0 -- -- 72
2018-09-20 04:00:00 14 4 Nordeste 12 Sudeste 0 -- -- 67
2018-09-20 03:00:00 16.3 9 Sudeste 12 Sur 0 -- -- 61
2018-09-20 02:00:00 16.5 7 Sur 9 Sur 0 -- -- 57
2018-09-20 01:00:00 17.8 4 Sur 9 Sur 0 -- -- 49
2018-09-20 00:00:00 19.7 7 Sudoeste 10 Sudoeste 0 -- -- 42